createdAt,value
2022-08-17T00:01:53.107Z,12.50
2022-08-17T00:04:31.731Z,11.45
2022-08-17T00:07:08.139Z,14.17
2022-08-17T00:09:42.112Z,11.48
2022-08-17T00:12:43.490Z,8.55
2022-08-17T00:15:13.695Z,10.48
2022-08-17T00:17:48.165Z,11.90
2022-08-17T00:20:30.452Z,12.60
2022-08-17T00:23:11.765Z,12.93
2022-08-17T00:25:47.033Z,9.25
2022-08-17T00:28:21.469Z,9.70
2022-08-17T00:30:57.186Z,11.73
2022-08-17T00:36:09.195Z,10.15
2022-08-17T00:38:43.317Z,10.82
2022-08-17T00:41:19.823Z,11.70
2022-08-17T00:43:56.682Z,9.77
2022-08-17T00:46:35.048Z,13.73
2022-08-17T00:49:09.621Z,11.13
2022-08-17T00:51:51.559Z,11.48
2022-08-17T00:54:27.550Z,9.88
2022-08-17T00:57:04.094Z,13.90
2022-08-17T00:59:40.581Z,11.27
2022-08-17T01:02:16.484Z,9.35
2022-08-17T01:04:52.506Z,11.43
2022-08-17T01:07:30.561Z,8.23
2022-08-17T01:10:05.718Z,11.23
2022-08-17T01:12:40.643Z,9.45
2022-08-17T01:15:16.455Z,8.63
2022-08-17T01:17:52.229Z,16.65
2022-08-17T01:20:27.093Z,12.82
2022-08-17T01:23:04.486Z,8.80
2022-08-17T01:25:40.251Z,8.48
2022-08-17T01:31:12.262Z,10.75
2022-08-17T01:33:46.836Z,10.52
2022-08-17T01:36:21.508Z,11.70
2022-08-17T01:39:00.454Z,11.15
2022-08-17T01:41:35.901Z,12.77
2022-08-17T01:44:11.643Z,12.50
2022-08-17T01:49:20.454Z,12.63
2022-08-17T01:51:58.004Z,15.18
2022-08-17T01:54:37.322Z,12.90
2022-08-17T01:57:13.841Z,10.48
2022-08-17T01:59:49.141Z,10.55
2022-08-17T02:02:30.253Z,9.98
2022-08-17T02:05:10.803Z,11.15
2022-08-17T02:08:00.190Z,12.20
2022-08-17T02:10:38.768Z,8.73
2022-08-17T02:15:57.295Z,9.30
2022-08-17T02:18:31.711Z,10.77
2022-08-17T02:21:06.275Z,12.65
2022-08-17T02:23:45.420Z,10.32
2022-08-17T02:26:26.365Z,10.70
2022-08-17T02:29:04.472Z,8.10
2022-08-17T02:31:40.373Z,11.20
2022-08-17T02:34:14.308Z,9.77
2022-08-17T02:36:48.278Z,12.18
2022-08-17T02:39:22.796Z,9.80
2022-08-17T02:42:07.090Z,8.95
2022-08-17T02:44:41.878Z,10.20
2022-08-17T02:47:16.924Z,12.80
2022-08-17T02:49:55.677Z,11.50
2022-08-17T02:52:43.101Z,9.23
2022-08-17T02:55:23.793Z,11.45
2022-08-17T02:58:01.906Z,10.05
2022-08-17T03:00:38.447Z,11.03
2022-08-17T03:03:18.916Z,13.32
2022-08-17T03:05:54.474Z,14.55
2022-08-17T03:08:33.478Z,10.20
2022-08-17T03:11:08.605Z,10.48
2022-08-17T03:13:46.655Z,11.27
2022-08-17T03:16:22.094Z,11.63
2022-08-17T03:18:57.706Z,9.30
2022-08-17T03:21:32.273Z,10.85
2022-08-17T03:24:08.750Z,12.68
2022-08-17T03:26:43.601Z,12.40
2022-08-17T03:29:21.951Z,14.27
2022-08-17T03:31:56.809Z,13.13
2022-08-17T03:34:31.461Z,16.55
2022-08-17T03:37:07.046Z,16.55
2022-08-17T03:39:41.507Z,14.40
2022-08-17T03:42:31.612Z,10.88
2022-08-17T03:45:06.539Z,13.65
2022-08-17T03:47:58.054Z,14.30
2022-08-17T03:50:45.310Z,13.77
2022-08-17T03:53:31.701Z,10.73
2022-08-17T03:56:19.691Z,13.30
2022-08-17T03:58:54.735Z,11.05
2022-08-17T04:01:32.001Z,10.70
2022-08-17T04:04:09.827Z,11.23
2022-08-17T04:06:44.601Z,14.80
2022-08-17T04:09:20.231Z,13.77
2022-08-17T04:11:55.337Z,12.80
2022-08-17T04:14:33.969Z,10.53
2022-08-17T04:17:08.826Z,15.40
2022-08-17T04:19:46.544Z,20.23
2022-08-17T04:22:31.794Z,12.60
2022-08-17T04:25:11.298Z,17.58
2022-08-17T04:27:45.609Z,23.03
2022-08-17T04:30:21.213Z,14.00
2022-08-17T04:33:09.897Z,16.33
2022-08-17T04:35:47.970Z,18.90
2022-08-17T04:38:23.574Z,15.25
2022-08-17T04:41:11.189Z,17.00
2022-08-17T04:43:48.505Z,19.30
2022-08-17T04:46:25.229Z,15.67
2022-08-17T04:49:00.853Z,18.88
2022-08-17T04:51:38.875Z,17.08
2022-08-17T04:54:22.169Z,17.50
2022-08-17T04:56:57.356Z,19.00
2022-08-17T04:59:37.547Z,26.30
2022-08-17T05:02:14.536Z,20.67
2022-08-17T05:04:50.588Z,18.38
2022-08-17T05:07:31.716Z,19.27
2022-08-17T05:10:07.601Z,20.15
2022-08-17T05:12:44.595Z,17.45
2022-08-17T05:15:20.390Z,17.13
2022-08-17T05:17:58.009Z,20.77
2022-08-17T05:20:35.552Z,18.20
2022-08-17T05:23:20.262Z,17.33
2022-08-17T05:25:56.608Z,16.65
2022-08-17T05:28:34.177Z,16.47
2022-08-17T05:31:11.484Z,19.60
2022-08-17T05:33:48.011Z,15.05
2022-08-17T05:36:43.385Z,15.63
2022-08-17T05:39:17.451Z,20.55
2022-08-17T05:41:53.854Z,17.90
2022-08-17T05:44:31.187Z,16.98
2022-08-17T05:47:07.101Z,16.90
2022-08-17T05:49:44.281Z,15.73
2022-08-17T05:52:24.305Z,14.88
2022-08-17T05:55:05.838Z,16.42
2022-08-17T05:57:53.281Z,14.40
2022-08-17T06:00:31.256Z,16.88
2022-08-17T06:03:28.173Z,12.80
2022-08-17T06:06:09.182Z,13.60
2022-08-17T06:08:48.399Z,13.77
2022-08-17T06:11:31.296Z,17.00
2022-08-17T06:14:21.034Z,11.27
2022-08-17T06:16:58.666Z,14.70
2022-08-17T06:19:37.647Z,11.15
2022-08-17T06:22:16.460Z,13.97
2022-08-17T06:24:54.015Z,16.92
2022-08-17T06:27:33.170Z,11.17
2022-08-17T06:30:12.357Z,11.52
2022-08-17T06:32:47.471Z,10.18
2022-08-17T06:35:31.833Z,11.95
2022-08-17T06:38:07.352Z,9.75
2022-08-17T06:41:02.581Z,9.98
2022-08-17T06:43:47.901Z,12.85
2022-08-17T06:46:29.008Z,10.63
2022-08-17T06:49:10.782Z,13.63
2022-08-17T06:51:47.381Z,13.02
2022-08-17T06:54:25.678Z,14.45
2022-08-17T06:57:02.830Z,10.23
2022-08-17T06:59:55.498Z,9.40
2022-08-17T07:02:52.917Z,11.65
2022-08-17T07:05:30.237Z,13.00
2022-08-17T07:08:08.557Z,9.07
2022-08-17T07:10:45.988Z,11.02
2022-08-17T07:13:30.405Z,9.00
2022-08-17T07:16:16.096Z,10.07
2022-08-17T07:21:39.015Z,10.38
2022-08-17T07:24:29.223Z,9.50
2022-08-17T07:27:11.018Z,8.85
2022-08-17T07:29:49.751Z,8.93
2022-08-17T07:32:27.727Z,10.75
2022-08-17T07:35:15.947Z,8.07
2022-08-17T07:37:54.560Z,9.43
2022-08-17T07:40:29.883Z,9.48
2022-08-17T07:43:19.918Z,8.38
2022-08-17T07:46:17.978Z,13.27
2022-08-17T07:48:53.993Z,10.23
2022-08-17T07:51:33.209Z,8.40
2022-08-17T07:54:25.705Z,8.95
2022-08-17T07:57:01.889Z,7.32
2022-08-17T07:59:38.450Z,10.07
2022-08-17T08:02:31.984Z,9.20
2022-08-17T08:05:10.346Z,10.90
2022-08-17T08:07:56.594Z,10.47
2022-08-17T08:10:36.025Z,9.30
2022-08-17T08:13:14.788Z,6.82
2022-08-17T08:15:53.633Z,9.88
2022-08-17T08:18:38.659Z,9.60
2022-08-17T08:21:25.772Z,6.40
2022-08-17T08:24:10.915Z,8.48
2022-08-17T08:26:47.814Z,7.68
2022-08-17T08:29:28.558Z,8.70
2022-08-17T08:32:06.995Z,7.93
2022-08-17T08:35:02.073Z,6.90
2022-08-17T08:37:44.953Z,7.80
2022-08-17T08:40:36.894Z,7.10
2022-08-17T08:43:11.287Z,9.60
2022-08-17T08:45:49.799Z,7.90
2022-08-17T08:48:53.016Z,9.90
2022-08-17T08:51:33.362Z,6.80
2022-08-17T08:54:12.554Z,6.90
2022-08-17T08:57:21.903Z,6.13
2022-08-17T08:59:57.618Z,7.40
2022-08-17T09:02:49.684Z,6.68
2022-08-17T09:05:32.443Z,6.63
2022-08-17T09:08:03.670Z,6.35
2022-08-17T09:10:49.940Z,8.07
2022-08-17T09:13:30.768Z,6.75
2022-08-17T09:16:09.372Z,9.20
2022-08-17T09:19:00.954Z,8.35
2022-08-17T09:21:47.804Z,6.20
2022-08-17T09:24:23.311Z,6.97
2022-08-17T09:27:01.205Z,6.85
2022-08-17T09:29:40.454Z,7.05
2022-08-17T09:32:22.902Z,6.88
2022-08-17T09:35:00.514Z,8.32
2022-08-17T09:37:51.794Z,8.85
2022-08-17T09:40:28.060Z,6.68
2022-08-17T09:43:05.410Z,6.60
2022-08-17T09:45:44.440Z,7.37
2022-08-17T09:48:20.397Z,8.35
2022-08-17T09:51:04.755Z,6.55
2022-08-17T09:53:41.060Z,7.95
2022-08-17T09:56:25.541Z,8.25
2022-08-17T09:59:27.743Z,6.25
2022-08-17T10:02:36.617Z,6.35
2022-08-17T10:05:12.577Z,8.68
2022-08-17T10:07:46.965Z,5.80
2022-08-17T10:10:25.392Z,6.97
2022-08-17T10:13:03.184Z,7.05
2022-08-17T10:15:47.301Z,6.03
2022-08-17T10:18:20.228Z,7.55
2022-08-17T10:21:19.142Z,7.37
2022-08-17T10:24:14.038Z,6.55
2022-08-17T10:26:56.704Z,5.13
2022-08-17T10:29:49.005Z,6.15
2022-08-17T10:32:32.883Z,5.95
2022-08-17T10:35:06.694Z,8.02
2022-08-17T10:38:01.559Z,5.70
2022-08-17T10:40:39.546Z,6.27
2022-08-17T10:43:26.478Z,7.93
2022-08-17T10:46:09.502Z,6.47
2022-08-17T10:49:24.841Z,6.45
2022-08-17T10:51:58.706Z,6.32
2022-08-17T10:54:50.947Z,6.40
2022-08-17T10:57:41.672Z,6.57
2022-08-17T11:00:26.975Z,11.00
2022-08-17T11:03:01.583Z,6.37
2022-08-17T11:05:54.360Z,7.30
2022-08-17T11:08:54.528Z,6.85
2022-08-17T11:11:29.277Z,7.97
2022-08-17T11:14:14.282Z,6.73
2022-08-17T11:16:53.668Z,5.80
2022-08-17T11:19:43.735Z,8.60
2022-08-17T11:22:37.671Z,9.25
2022-08-17T11:25:18.070Z,9.33
2022-08-17T11:27:54.009Z,7.95
2022-08-17T11:30:48.932Z,5.70
2022-08-17T11:34:08.503Z,6.20
2022-08-17T11:37:03.844Z,6.47
2022-08-17T11:40:06.734Z,6.30
2022-08-17T11:42:51.815Z,7.18
2022-08-17T11:45:42.519Z,5.65
2022-08-17T11:48:29.464Z,5.90
2022-08-17T11:51:25.243Z,12.10
2022-08-17T11:54:31.651Z,10.90
2022-08-17T11:57:03.038Z,22.77
2022-08-17T11:59:59.629Z,7.53
2022-08-17T12:02:47.446Z,6.63
2022-08-17T12:05:39.199Z,5.30
2022-08-17T12:08:32.933Z,5.90
2022-08-17T12:11:10.806Z,5.20
2022-08-17T12:13:47.252Z,6.17
2022-08-17T12:16:25.217Z,6.27
2022-08-17T12:19:02.640Z,5.85
2022-08-17T12:21:45.430Z,12.85
2022-08-17T12:24:32.326Z,7.95
2022-08-17T12:27:08.301Z,7.80
2022-08-17T12:29:44.723Z,7.82
2022-08-17T12:32:21.328Z,7.57
2022-08-17T12:35:00.402Z,15.65
2022-08-17T12:37:35.969Z,6.25
2022-08-17T12:40:22.873Z,5.63
2022-08-17T12:42:58.619Z,11.43
2022-08-17T12:45:36.705Z,6.63
2022-08-17T12:48:13.311Z,6.80
2022-08-17T12:50:47.628Z,5.70
2022-08-17T12:53:21.997Z,8.85
2022-08-17T12:56:06.414Z,5.70
2022-08-17T12:58:48.266Z,6.30
2022-08-17T13:01:23.702Z,7.78
2022-08-17T13:04:01.127Z,6.72
2022-08-17T13:06:39.035Z,5.53
2022-08-17T13:09:15.116Z,5.13
2022-08-17T13:11:53.910Z,5.97
2022-08-17T13:14:28.626Z,5.68
2022-08-17T13:17:11.105Z,6.50
2022-08-17T13:19:53.211Z,6.17
2022-08-17T13:22:30.049Z,5.97
2022-08-17T13:25:10.382Z,5.85
2022-08-17T13:27:52.171Z,5.55
2022-08-17T13:30:31.094Z,5.30
2022-08-17T13:33:05.625Z,7.30
2022-08-17T13:35:46.481Z,5.07
2022-08-17T13:38:39.724Z,5.85
2022-08-17T13:41:35.060Z,5.53
2022-08-17T13:44:42.940Z,4.97
2022-08-17T13:47:22.413Z,6.05
2022-08-17T13:49:56.602Z,4.72
2022-08-17T13:52:39.956Z,5.83
2022-08-17T13:55:20.260Z,6.60
2022-08-17T13:58:06.861Z,5.82
2022-08-17T14:00:42.060Z,8.45
2022-08-17T14:03:20.172Z,5.07
2022-08-17T14:05:56.294Z,5.78
2022-08-17T14:08:31.116Z,5.05
2022-08-17T14:11:06.206Z,6.10
2022-08-17T14:16:14.969Z,5.97
2022-08-17T14:18:56.907Z,5.70
2022-08-17T14:21:31.713Z,5.68
2022-08-17T14:24:07.217Z,6.15
2022-08-17T14:26:42.053Z,6.13
2022-08-17T14:29:16.585Z,6.88
2022-08-17T14:31:54.251Z,6.20
2022-08-17T14:34:32.637Z,8.80
2022-08-17T14:37:07.973Z,5.75
2022-08-17T14:39:42.852Z,5.10
2022-08-17T14:42:18.849Z,6.43
2022-08-17T14:44:54.352Z,6.38
2022-08-17T14:47:27.085Z,5.23
2022-08-17T14:50:05.623Z,6.20
2022-08-17T14:52:44.382Z,6.28
2022-08-17T14:55:21.193Z,6.63
2022-08-17T14:57:56.446Z,5.65
2022-08-17T15:00:31.856Z,4.82
2022-08-17T15:03:07.852Z,4.97
2022-08-17T15:05:47.134Z,5.30
2022-08-17T15:08:22.953Z,5.82
2022-08-17T15:10:58.583Z,6.85
2022-08-17T15:13:33.711Z,7.53
2022-08-17T15:18:43.810Z,6.47
2022-08-17T15:23:59.770Z,5.18
2022-08-17T15:26:35.236Z,5.25
2022-08-17T15:29:10.587Z,5.07
2022-08-17T15:31:48.859Z,7.20
2022-08-17T15:34:25.226Z,6.05
2022-08-17T15:37:03.030Z,4.75
2022-08-17T15:39:40.326Z,5.25
2022-08-17T15:42:15.239Z,8.07
2022-08-17T15:44:50.311Z,15.45
2022-08-17T15:50:00.265Z,6.68
2022-08-17T15:52:40.617Z,5.57
2022-08-17T15:55:23.836Z,6.05
2022-08-17T15:57:58.700Z,4.80
2022-08-17T16:00:44.107Z,5.93
2022-08-17T16:03:59.321Z,5.72
2022-08-17T16:06:24.289Z,6.80
2022-08-17T16:09:03.172Z,6.55
2022-08-17T16:11:37.656Z,5.80
2022-08-17T16:14:14.492Z,6.70
2022-08-17T16:16:48.716Z,5.87
2022-08-17T16:19:25.091Z,11.00
2022-08-17T16:22:00.750Z,7.95
2022-08-17T16:24:39.199Z,8.02
2022-08-17T16:27:14.466Z,6.47
2022-08-17T16:29:55.455Z,6.78
2022-08-17T16:32:33.062Z,6.53
2022-08-17T16:35:08.268Z,6.50
2022-08-17T16:37:44.603Z,5.57
2022-08-17T16:40:24.149Z,5.43
2022-08-17T16:43:01.895Z,9.02
2022-08-17T16:45:40.825Z,6.43
2022-08-17T16:48:16.281Z,6.35
2022-08-17T16:51:03.277Z,5.22
2022-08-17T16:53:39.279Z,9.90
2022-08-17T16:56:19.062Z,11.50
2022-08-17T16:58:54.693Z,7.77
2022-08-17T17:01:29.881Z,6.75
2022-08-17T17:04:07.163Z,6.18
2022-08-17T17:06:45.733Z,11.18
2022-08-17T17:09:23.153Z,6.60
2022-08-17T17:12:02.561Z,5.85
2022-08-17T17:14:40.303Z,8.82
2022-08-17T17:17:16.823Z,6.23
2022-08-17T17:19:54.482Z,11.75
2022-08-17T17:22:32.037Z,13.43
2022-08-17T17:25:10.802Z,8.13
2022-08-17T17:27:53.372Z,5.70
2022-08-17T17:30:29.524Z,10.15
2022-08-17T17:33:06.804Z,7.57
2022-08-17T17:35:47.681Z,6.25
2022-08-17T17:38:24.008Z,7.75
2022-08-17T17:41:07.759Z,8.17
2022-08-17T17:43:49.648Z,8.20
2022-08-17T17:46:29.246Z,23.95
2022-08-17T17:49:05.071Z,18.98
2022-08-17T17:52:09.605Z,16.08
2022-08-17T17:54:52.574Z,10.25
2022-08-17T17:57:33.334Z,15.98
2022-08-17T18:00:10.944Z,14.55
2022-08-17T18:02:56.741Z,11.02
2022-08-17T18:05:40.333Z,10.13
2022-08-17T18:08:20.061Z,10.63
2022-08-17T18:11:14.200Z,7.55
2022-08-17T18:13:56.635Z,10.10
2022-08-17T18:16:35.651Z,7.97
2022-08-17T18:19:09.683Z,9.80
2022-08-17T18:21:46.773Z,9.93
2022-08-17T18:24:31.922Z,6.77
2022-08-17T18:27:08.280Z,8.10
2022-08-17T18:29:46.281Z,7.68
2022-08-17T18:32:34.784Z,10.68
2022-08-17T18:35:30.418Z,13.40
2022-08-17T18:38:25.829Z,8.52
2022-08-17T18:41:02.727Z,9.50
2022-08-17T18:43:53.230Z,8.45
2022-08-17T18:46:35.266Z,7.10
2022-08-17T18:49:28.381Z,12.32
2022-08-17T18:52:12.105Z,6.50
2022-08-17T18:55:08.793Z,9.77
2022-08-17T18:57:44.698Z,12.23
2022-08-17T19:00:21.542Z,10.47
2022-08-17T19:02:56.424Z,7.07
2022-08-17T19:05:36.532Z,10.18
2022-08-17T19:08:23.170Z,10.13
2022-08-17T19:10:58.677Z,9.43
2022-08-17T19:13:35.083Z,11.60
2022-08-17T19:16:15.581Z,9.63
2022-08-17T19:18:54.879Z,9.55
2022-08-17T19:21:40.682Z,12.00
2022-08-17T19:26:59.166Z,12.15
2022-08-17T19:29:38.350Z,9.13
2022-08-17T19:32:15.192Z,9.65
2022-08-17T19:34:53.967Z,9.27
2022-08-17T19:37:38.590Z,13.05
2022-08-17T19:40:41.919Z,10.13
2022-08-17T19:43:17.643Z,10.23
2022-08-17T19:45:59.754Z,12.10
2022-08-17T19:48:43.119Z,8.45
2022-08-17T19:51:21.404Z,9.02
2022-08-17T19:54:07.713Z,12.02
2022-08-17T19:56:46.609Z,9.20
2022-08-17T19:59:25.749Z,8.98
2022-08-17T20:02:06.186Z,9.50
2022-08-17T20:04:43.274Z,10.00
2022-08-17T20:07:25.983Z,12.98
2022-08-17T20:10:05.788Z,12.32
2022-08-17T20:12:48.285Z,15.90
2022-08-17T20:15:27.399Z,18.00
2022-08-17T20:18:05.929Z,16.42
2022-08-17T20:20:39.929Z,18.75
2022-08-17T20:23:17.204Z,22.20
2022-08-17T20:26:02.669Z,18.10
2022-08-17T20:28:39.275Z,20.45
2022-08-17T20:31:44.759Z,18.83
2022-08-17T20:34:41.243Z,13.40
2022-08-17T20:37:31.882Z,16.30
2022-08-17T20:40:26.073Z,14.27
2022-08-17T20:43:04.041Z,10.25
2022-08-17T20:46:10.072Z,13.95
2022-08-17T20:48:46.993Z,12.68
2022-08-17T20:51:27.740Z,13.02
2022-08-17T20:54:28.827Z,14.32
2022-08-17T20:57:09.262Z,12.48
2022-08-17T21:00:15.190Z,14.20
2022-08-17T21:02:52.807Z,15.38
2022-08-17T21:05:34.321Z,12.20
2022-08-17T21:08:16.992Z,13.63
2022-08-17T21:10:53.605Z,15.50
2022-08-17T21:13:58.215Z,14.82
2022-08-17T21:16:50.593Z,10.60
2022-08-17T21:19:49.008Z,13.80
2022-08-17T21:22:41.120Z,17.40
2022-08-17T21:25:23.055Z,12.98
2022-08-17T21:28:07.435Z,15.18
2022-08-17T21:30:52.326Z,15.10
2022-08-17T21:33:31.977Z,15.25
2022-08-17T21:36:27.057Z,14.15
2022-08-17T21:39:06.749Z,14.00
2022-08-17T21:41:53.195Z,12.25
2022-08-17T21:44:33.542Z,13.40
2022-08-17T21:47:18.722Z,12.25
2022-08-17T21:49:50.171Z,15.95
2022-08-17T21:52:28.998Z,11.60
2022-08-17T21:55:04.391Z,11.10
2022-08-17T22:00:29.967Z,11.57
2022-08-17T22:03:05.732Z,12.43
2022-08-17T22:05:43.304Z,13.40
2022-08-17T22:08:26.073Z,13.95
2022-08-17T22:11:05.106Z,12.73
2022-08-17T22:13:41.127Z,16.80
2022-08-17T22:16:27.820Z,12.10
2022-08-17T22:19:05.009Z,13.77
2022-08-17T22:21:42.651Z,15.75
2022-08-17T22:24:25.392Z,14.68
2022-08-17T22:27:42.782Z,10.40
2022-08-17T22:32:54.254Z,13.68
2022-08-17T22:35:33.254Z,12.50
2022-08-17T22:38:35.775Z,13.18
2022-08-17T22:41:28.279Z,16.90
2022-08-17T22:44:09.445Z,12.50
2022-08-17T22:46:45.946Z,12.02
2022-08-17T22:49:27.156Z,15.40
2022-08-17T22:52:07.816Z,13.40
2022-08-17T22:54:55.225Z,14.20
2022-08-17T22:57:44.987Z,16.92
2022-08-17T23:00:34.954Z,15.60
2022-08-17T23:03:13.006Z,14.70
2022-08-17T23:05:48.819Z,12.60
2022-08-17T23:08:24.450Z,16.42
2022-08-17T23:13:37.933Z,12.80
2022-08-17T23:16:13.920Z,14.32
2022-08-17T23:18:51.231Z,13.43
2022-08-17T23:21:27.554Z,12.07
2022-08-17T23:24:02.326Z,13.00
2022-08-17T23:26:41.511Z,17.17
2022-08-17T23:29:21.017Z,12.23
2022-08-17T23:31:58.160Z,15.13
2022-08-17T23:34:34.197Z,13.33
2022-08-17T23:37:09.625Z,13.60
2022-08-17T23:39:45.044Z,17.80
2022-08-17T23:42:22.149Z,15.77
2022-08-17T23:44:59.890Z,14.90
2022-08-17T23:47:35.115Z,14.07
2022-08-17T23:50:11.452Z,13.60
2022-08-17T23:52:47.011Z,18.10
2022-08-17T23:57:55.923Z,15.70
